Time;durP1;ratioP1;P1;durP2;ratioP2;P2;SDS_P1;SDS_P2;PMS_P1;PMS_P2;Temp;Humidity;BMP_temperature;BMP_pressure;BME280_temperature;BME280_humidity;BME280_pressure;Samples;Min_cycle;Max_cycle;Signal;HPM_P1;HPM_P2
2021/11/25 00:02:50;;;;;;;4.60;2.72;;;;;;;5.12;100.00;101161.22;6254023;28;20049;-75
2021/11/25 00:05:51;;;;;;;3.90;2.70;;;;;;;5.11;100.00;101156.91;6254097;28;20057;-75
2021/11/25 00:08:52;;;;;;;4.93;2.42;;;;;;;5.10;100.00;101153.47;6251230;28;20050;-75
2021/11/25 00:11:55;;;;;;;5.78;2.35;;;;;;;5.10;100.00;101150.84;6249883;28;20049;-76
2021/11/25 00:14:56;;;;;;;8.20;2.05;;;;;;;5.09;100.00;101138.72;6250086;28;20503;-75
2021/11/25 00:17:58;;;;;;;5.40;1.95;;;;;;;5.11;100.00;101125.66;6250100;28;20086;-75
2021/11/25 00:20:59;;;;;;;3.47;2.22;;;;;;;5.11;100.00;101117.84;6249619;28;20053;-75
2021/11/25 00:24:03;;;;;;;8.00;2.58;;;;;;;5.08;100.00;101111.81;6227084;28;20049;-75
2021/11/25 00:27:06;;;;;;;3.72;1.75;;;;;;;5.07;100.00;101112.69;6225386;28;20052;-76
2021/11/25 00:30:09;;;;;;;4.63;2.33;;;;;;;5.06;100.00;101115.34;6224888;28;20433;-75
2021/11/25 00:33:11;;;;;;;4.10;2.10;;;;;;;5.06;100.00;101110.16;6239122;28;20421;-75
2021/11/25 00:36:12;;;;;;;8.32;1.90;;;;;;;5.07;100.00;101098.81;6249780;28;20432;-76
2021/11/25 00:39:14;;;;;;;2.60;2.03;;;;;;;5.08;100.00;101093.56;6249402;28;20050;-75
2021/11/25 00:42:16;;;;;;;4.90;2.78;;;;;;;5.08;100.00;101103.97;6247818;28;20056;-75
2021/11/25 00:45:18;;;;;;;5.50;2.22;;;;;;;5.08;100.00;101095.31;6249385;28;20048;-74
2021/11/25 00:48:20;;;;;;;4.38;2.45;;;;;;;5.00;100.00;101087.72;6249346;28;20515;-75
2021/11/25 00:51:21;;;;;;;3.53;2.05;;;;;;;4.96;100.00;101091.28;6249208;28;20045;-75
2021/11/25 00:54:23;;;;;;;3.70;1.90;;;;;;;5.01;100.00;101084.22;6249236;28;20052;-75
2021/11/25 00:57:25;;;;;;;3.42;2.22;;;;;;;5.00;100.00;101082.50;6249258;28;20076;-76
2021/11/25 01:00:27;;;;;;;4.35;2.30;;;;;;;4.98;100.00;101081.66;6248817;28;20412;-75
2021/11/25 01:03:28;;;;;;;5.85;2.72;;;;;;;5.02;100.00;101074.66;6249012;28;20128;-75
2021/11/25 01:06:30;;;;;;;3.28;2.08;;;;;;;5.03;100.00;101065.94;6248853;28;20052;-75
2021/11/25 01:09:31;;;;;;;3.88;1.73;;;;;;;5.01;100.00;101062.53;6249685;28;20064;-75
2021/11/25 01:12:34;;;;;;;4.53;2.13;;;;;;;4.98;100.00;101071.25;6246736;28;20113;-75
2021/11/25 01:15:36;;;;;;;4.22;2.10;;;;;;;5.03;100.00;101064.19;6248930;28;20045;-75
2021/11/25 01:18:37;;;;;;;6.28;2.42;;;;;;;5.07;100.00;101062.34;6248693;28;20053;-75
2021/11/25 01:21:39;;;;;;;2.30;1.55;;;;;;;5.08;100.00;101064.91;6248094;28;20049;-76
2021/11/25 01:24:40;;;;;;;3.65;2.40;;;;;;;5.11;100.00;101063.13;6248835;28;20052;-76
2021/11/25 01:27:43;;;;;;;5.22;2.60;;;;;;;5.11;100.00;101053.56;6248535;28;20046;-76
2021/11/25 01:30:46;;;;;;;5.70;2.50;;;;;;;5.13;100.00;101037.88;6248099;28;20424;-76
2021/11/25 01:33:48;;;;;;;4.57;1.73;;;;;;;5.13;100.00;101043.09;6248064;28;20053;-75
2021/11/25 01:36:49;;;;;;;3.95;2.17;;;;;;;5.10;100.00;101038.84;6248149;28;20052;-75
2021/11/25 01:39:50;;;;;;;6.13;2.67;;;;;;;5.03;100.00;101038.13;6247746;28;20049;-75
2021/11/25 01:42:53;;;;;;;8.57;2.42;;;;;;;5.03;100.00;101019.91;6246578;28;20045;-76
2021/11/25 01:45:56;;;;;;;4.47;2.70;;;;;;;5.06;100.00;101030.25;6247900;28;20056;-75
2021/11/25 01:48:57;;;;;;;6.60;2.53;;;;;;;5.08;100.00;101027.59;6247992;28;20056;-75
2021/11/25 01:51:59;;;;;;;4.50;2.03;;;;;;;5.06;100.00;101030.25;6247312;28;20049;-75
2021/11/25 01:55:00;;;;;;;5.80;2.40;;;;;;;5.04;100.00;101020.75;6247575;28;20412;-75
2021/11/25 01:58:03;;;;;;;3.80;2.05;;;;;;;5.02;100.00;101018.19;6247771;28;20050;-76
2021/11/25 02:01:07;;;;;;;3.38;1.98;;;;;;;5.02;100.00;101004.31;6247352;28;20061;-75
2021/11/25 02:04:09;;;;;;;3.35;2.10;;;;;;;5.00;100.00;101006.97;6248120;28;20041;-75
2021/11/25 02:07:10;;;;;;;5.78;2.65;;;;;;;4.98;100.00;101008.75;6247686;28;20049;-75
2021/11/25 02:10:13;;;;;;;4.65;2.55;;;;;;;4.97;100.00;100998.38;6247432;28;20056;-75
2021/11/25 02:13:16;;;;;;;3.58;1.88;;;;;;;4.96;100.00;101001.88;6224580;28;20045;-76
2021/11/25 02:16:18;;;;;;;3.97;2.08;;;;;;;4.95;100.00;100998.44;6222956;28;20061;-76
2021/11/25 02:19:20;;;;;;;5.75;2.70;;;;;;;4.96;100.00;100994.06;6222702;28;20049;-75
2021/11/25 02:22:23;;;;;;;4.28;2.28;;;;;;;4.95;100.00;100989.75;6222624;28;20046;-75
2021/11/25 02:25:24;;;;;;;5.43;2.78;;;;;;;4.94;100.00;100988.88;6222752;28;20042;-76
2021/11/25 02:28:29;;;;;;;9.95;3.15;;;;;;;4.91;100.00;100982.94;6222473;28;20050;-75
2021/11/25 02:31:31;;;;;;;3.95;2.88;;;;;;;4.92;100.00;100982.88;6221976;28;20080;-76
2021/11/25 02:34:32;;;;;;;4.28;2.65;;;;;;;4.92;100.00;100982.03;6283131;23;20060;-78
2021/11/25 02:37:35;;;;;;;4.80;2.15;;;;;;;4.90;100.00;100979.44;6272056;28;20056;-78
2021/11/25 02:40:38;;;;;;;2.63;2.00;;;;;;;4.90;100.00;100979.44;6271369;28;20053;-79
2021/11/25 02:43:39;;;;;;;4.10;2.97;;;;;;;4.87;100.00;100973.50;6271763;28;20488;-79
2021/11/25 02:46:41;;;;;;;3.92;2.30;;;;;;;4.87;100.00;100958.72;6271710;28;20045;-79
2021/11/25 02:49:43;;;;;;;4.75;2.28;;;;;;;4.88;100.00;100951.75;6271668;28;20059;-79
2021/11/25 02:52:46;;;;;;;5.15;2.78;;;;;;;4.81;100.00;100945.84;6271460;28;20488;-77
2021/11/25 02:55:48;;;;;;;5.45;2.95;;;;;;;4.80;100.00;100947.59;6271514;28;20131;-77
2021/11/25 02:58:51;;;;;;;4.07;2.40;;;;;;;4.76;100.00;100945.97;6271523;28;20049;-77
2021/11/25 03:01:52;;;;;;;5.70;2.35;;;;;;;4.73;100.00;100942.59;6271240;28;20045;-79
2021/11/25 03:04:54;;;;;;;4.47;2.22;;;;;;;4.77;100.00;100937.28;6271345;28;20053;-77
2021/11/25 03:07:57;;;;;;;4.22;2.58;;;;;;;4.79;100.00;100939.81;6272897;28;20049;-77
2021/11/25 03:11:02;;;;;;;3.30;1.88;;;;;;;4.77;100.00;100941.63;6274264;28;20053;-78
2021/11/25 03:14:06;;;;;;;5.45;2.25;;;;;;;4.76;100.00;100938.16;6270712;28;20048;-78
2021/11/25 03:17:07;;;;;;;4.72;2.80;;;;;;;4.75;100.00;100938.19;6269765;28;20116;-79
2021/11/25 03:20:09;;;;;;;3.80;1.73;;;;;;;4.72;100.00;100933.06;6270814;28;20467;-78
2021/11/25 03:23:13;;;;;;;4.07;2.47;;;;;;;4.73;100.00;100930.44;6271602;28;20053;-79
2021/11/25 03:26:19;;;;;;;5.97;2.22;;;;;;;4.73;100.00;100932.19;6267261;28;20056;-78
2021/11/25 03:29:20;;;;;;;7.20;3.03;;;;;;;4.72;100.00;100931.31;6271522;28;20045;-79
2021/11/25 03:32:22;;;;;;;5.28;2.60;;;;;;;4.67;100.00;100932.31;6270942;28;20056;-78
2021/11/25 03:35:24;;;;;;;4.70;2.40;;;;;;;4.65;100.00;100921.97;6271234;28;20041;-79
2021/11/25 03:38:27;;;;;;;3.58;2.60;;;;;;;4.66;100.00;100928.03;6270933;28;20530;-77
2021/11/25 03:41:29;;;;;;;3.10;2.10;;;;;;;4.69;100.00;100917.53;6270810;28;20060;-78
2021/11/25 03:44:30;;;;;;;3.35;2.10;;;;;;;4.70;100.00;100922.69;6272808;28;20052;-78
2021/11/25 03:47:32;;;;;;;3.72;1.92;;;;;;;4.71;100.00;100919.19;6255421;28;20046;-77
2021/11/25 03:50:34;;;;;;;3.95;2.08;;;;;;;4.70;100.00;100911.44;6262303;28;20045;-77
2021/11/25 03:53:39;;;;;;;3.97;2.00;;;;;;;4.69;100.00;100901.94;6274590;28;20409;-77
2021/11/25 03:56:40;;;;;;;5.60;2.30;;;;;;;4.64;100.00;100894.25;6269204;28;20075;-77
2021/11/25 03:59:42;;;;;;;4.07;2.20;;;;;;;4.55;100.00;100886.69;6273530;28;20047;-77
2021/11/25 04:02:44;;;;;;;3.83;2.20;;;;;;;4.48;100.00;100880.75;6273603;28;20049;-77
2021/11/25 04:05:46;;;;;;;2.60;1.77;;;;;;;4.47;100.00;100878.22;6273771;28;20182;-77
2021/11/25 04:08:48;;;;;;;4.15;2.38;;;;;;;4.47;100.00;100879.06;6274756;28;20053;-77
2021/11/25 04:11:50;;;;;;;2.47;2.08;;;;;;;4.50;100.00;100883.34;6272892;28;20060;-77
2021/11/25 04:14:51;;;;;;;7.75;2.50;;;;;;;4.46;100.00;100882.56;6275020;28;20412;-77
2021/11/25 04:17:52;;;;;;;2.53;1.80;;;;;;;4.50;100.00;100889.41;6275022;28;20048;-77
2021/11/25 04:20:54;;;;;;;4.75;2.40;;;;;;;4.54;100.00;100887.53;6274681;28;20052;-77
2021/11/25 04:23:56;;;;;;;5.35;2.75;;;;;;;4.54;100.00;100883.22;6274686;28;20041;-77
2021/11/25 04:26:58;;;;;;;6.70;3.00;;;;;;;4.54;100.00;100871.94;6274005;28;20056;-76
2021/11/25 04:30:05;;;;;;;5.95;2.03;;;;;;;4.56;100.00;100883.16;6273732;28;20049;-77
2021/11/25 04:36:25;;;;;;;7.38;2.55;;;;;;;4.54;100.00;100883.22;6274550;28;20484;-77
2021/11/25 04:39:28;;;;;;;4.55;2.22;;;;;;;4.55;100.00;100878.88;6274086;28;20092;-76
2021/11/25 04:42:30;;;;;;;9.50;3.40;;;;;;;4.53;100.00;100880.63;6252259;28;20050;-77
2021/11/25 04:45:32;;;;;;;9.00;2.60;;;;;;;4.45;100.00;100875.66;6249290;28;20045;-77
2021/11/25 04:48:34;;;;;;;5.72;3.03;;;;;;;4.41;100.00;100868.81;6254326;28;20455;-77
2021/11/25 04:51:35;;;;;;;4.05;2.00;;;;;;;4.42;100.00;100867.06;6273137;28;20056;-77
2021/11/25 04:54:38;;;;;;;3.83;2.60;;;;;;;4.43;100.00;100874.81;6273698;28;20056;-77
2021/11/25 04:57:40;;;;;;;4.30;2.08;;;;;;;4.44;100.00;100873.94;6273644;28;20072;-78
2021/11/25 05:00:42;;;;;;;3.63;2.20;;;;;;;4.46;100.00;100864.34;6273748;28;20110;-77
2021/11/25 05:03:43;;;;;;;8.63;3.10;;;;;;;4.45;100.00;100866.97;6275121;28;20442;-78
2021/11/25 05:06:45;;;;;;;7.55;3.08;;;;;;;4.32;100.00;100859.50;6274709;28;20048;-77
2021/11/25 05:09:47;;;;;;;5.82;2.67;;;;;;;4.33;100.00;100861.19;6274286;28;20044;-77
2021/11/25 05:12:49;;;;;;;6.70;3.05;;;;;;;4.39;100.00;100860.19;6271234;28;20484;-77
2021/11/25 05:15:50;;;;;;;6.18;2.53;;;;;;;4.40;100.00;100853.22;6273354;28;20048;-77
2021/11/25 05:18:51;;;;;;;7.78;3.50;;;;;;;4.41;100.00;100852.34;6273059;28;20147;-77
2021/11/25 05:21:53;;;;;;;5.53;3.30;;;;;;;4.36;100.00;100851.59;6273119;28;20045;-76
2021/11/25 05:24:55;;;;;;;5.40;3.22;;;;;;;4.28;100.00;100850.06;6273090;28;20056;-76
2021/11/25 05:27:57;;;;;;;7.72;3.58;;;;;;;4.27;100.00;100842.28;6273126;28;20056;-76
2021/11/25 05:30:58;;;;;;;7.95;3.63;;;;;;;4.23;100.00;100846.72;6272920;28;20053;-76
2021/11/25 05:34:00;;;;;;;7.13;3.58;;;;;;;4.22;100.00;100832.00;6272890;28;20052;-76
2021/11/25 05:37:01;;;;;;;9.82;2.90;;;;;;;4.21;100.00;100821.66;6276652;28;20044;-79
2021/11/25 05:40:05;;;;;;;7.65;3.47;;;;;;;4.22;100.00;100824.19;6279118;28;20053;-79
2021/11/25 05:43:07;;;;;;;5.38;3.28;;;;;;;4.21;100.00;100832.03;6276880;28;20056;-79
2021/11/25 05:46:08;;;;;;;8.43;4.10;;;;;;;4.17;100.00;100825.22;6274885;28;20402;-76
2021/11/25 05:49:09;;;;;;;7.53;3.05;;;;;;;4.19;100.00;100831.25;6272228;28;20053;-76
2021/11/25 05:52:11;;;;;;;7.15;3.25;;;;;;;4.17;100.00;100820.84;6272709;28;20052;-76
2021/11/25 05:55:14;;;;;;;8.75;3.38;;;;;;;4.19;100.00;100820.84;6271579;28;20052;-76
2021/11/25 05:58:16;;;;;;;7.22;3.42;;;;;;;4.16;100.00;100818.31;6272530;28;20052;-76
2021/11/25 06:01:18;;;;;;;6.88;3.75;;;;;;;4.15;100.00;100825.25;6270505;28;20056;-76
2021/11/25 06:04:19;;;;;;;7.95;4.10;;;;;;;4.16;100.00;100819.16;6267056;28;20045;-76
2021/11/25 06:07:20;;;;;;;9.25;3.75;;;;;;;4.16;100.00;100820.91;6271290;28;20508;-76
2021/11/25 06:10:24;;;;;;;6.00;3.65;;;;;;;4.14;100.00;100814.91;6271940;28;20045;-76
2021/11/25 06:13:25;;;;;;;8.18;3.15;;;;;;;4.12;100.00;100816.69;6272355;28;20060;-76
2021/11/25 06:16:26;;;;;;;6.68;3.50;;;;;;;4.13;100.00;100802.78;6271929;28;20163;-76
2021/11/25 06:19:28;;;;;;;5.28;3.55;;;;;;;4.08;100.00;100802.91;6271776;28;20061;-76
2021/11/25 06:22:29;;;;;;;8.60;3.80;;;;;;;4.08;100.00;100795.94;6271738;28;20132;-77
2021/11/25 06:25:32;;;;;;;8.20;3.35;;;;;;;4.09;100.00;100794.22;6272050;28;20048;-76
2021/11/25 06:28:34;;;;;;;8.00;4.38;;;;;;;4.11;100.00;100800.22;6272075;28;20053;-77
2021/11/25 06:31:35;;;;;;;9.15;3.40;;;;;;;4.13;100.00;100792.38;6271739;28;20052;-76
2021/11/25 06:34:37;;;;;;;7.90;3.33;;;;;;;4.15;100.00;100791.44;6270018;28;20048;-76
2021/11/25 06:37:39;;;;;;;9.57;5.00;;;;;;;4.17;100.00;100799.19;6270514;28;20049;-77
2021/11/25 06:40:42;;;;;;;9.07;5.03;;;;;;;4.17;100.00;100787.06;6271508;28;20056;-76
2021/11/25 06:43:43;;;;;;;10.77;4.10;;;;;;;4.18;100.00;100799.19;6271283;28;20496;-76
2021/11/25 06:46:44;;;;;;;9.75;3.80;;;;;;;4.05;100.00;100793.44;6271496;28;20075;-76
2021/11/25 06:49:46;;;;;;;7.10;4.13;;;;;;;4.02;100.00;100790.06;6271334;28;20052;-76
2021/11/25 06:52:48;;;;;;;9.68;4.32;;;;;;;4.02;100.00;100793.50;6271333;28;20496;-77
2021/11/25 06:55:51;;;;;;;13.73;4.43;;;;;;;4.00;100.00;100784.06;6271286;28;20041;-76
2021/11/25 06:58:55;;;;;;;9.90;4.70;;;;;;;4.00;100.00;100779.72;6271313;28;20044;-76
2021/11/25 07:01:57;;;;;;;6.65;3.85;;;;;;;4.00;100.00;100778.84;6271146;28;20051;-76
2021/11/25 07:04:58;;;;;;;10.02;5.53;;;;;;;4.00;100.00;100781.47;6265899;28;20041;-76
2021/11/25 07:07:59;;;;;;;11.65;5.07;;;;;;;3.95;100.00;100781.56;6246770;28;20056;-76
2021/11/25 07:11:02;;;;;;;11.52;5.18;;;;;;;4.00;100.00;100786.66;6246379;28;20045;-76
2021/11/25 07:14:04;;;;;;;7.32;4.03;;;;;;;4.03;100.00;100783.97;6264450;28;20419;-76
2021/11/25 07:17:05;;;;;;;13.30;5.53;;;;;;;3.97;100.00;100773.72;6270871;28;20045;-77
2021/11/25 07:20:09;;;;;;;9.10;4.30;;;;;;;3.99;100.00;100779.72;6275700;28;20048;-76
2021/11/25 07:23:10;;;;;;;15.02;5.43;;;;;;;4.00;100.00;100773.66;6275940;28;20056;-76
2021/11/25 07:26:13;;;;;;;14.88;5.57;;;;;;;3.99;100.00;100759.78;6275904;28;20045;-77
2021/11/25 07:29:15;;;;;;;13.43;4.90;;;;;;;4.02;100.00;100764.06;6275857;28;20045;-76
2021/11/25 07:32:16;;;;;;;13.13;5.47;;;;;;;3.96;100.00;100752.06;6275281;28;20052;-76
2021/11/25 07:35:20;;;;;;;16.63;5.60;;;;;;;4.01;100.00;100754.56;6262628;28;20045;-76
2021/11/25 07:38:21;;;;;;;11.85;5.40;;;;;;;3.98;100.00;100745.06;6250939;28;20041;-76
2021/11/25 07:41:24;;;;;;;16.10;5.60;;;;;;;3.97;100.00;100742.53;6250857;28;20052;-76
2021/11/25 07:44:25;;;;;;;12.85;6.13;;;;;;;4.02;100.00;100740.66;6250708;28;20512;-76
2021/11/25 07:47:32;;;;;;;12.50;5.53;;;;;;;4.06;100.00;100730.13;6250930;28;20059;-76
2021/11/25 07:50:34;;;;;;;13.95;6.15;;;;;;;4.10;100.00;100738.72;6262134;28;20690;-75
2021/11/25 07:53:36;;;;;;;18.10;5.68;;;;;;;4.04;100.00;100734.53;6269449;28;20787;-79
2021/11/25 07:56:41;;;;;;;12.05;5.63;;;;;;;4.02;100.00;100732.84;6282838;28;20112;-79
2021/11/25 07:59:42;;;;;;;14.38;5.97;;;;;;;4.01;100.00;100738.97;6287909;28;20137;-80
2021/11/25 08:02:44;;;;;;;13.38;5.88;;;;;;;3.96;100.00;100743.44;6279821;28;20405;-80
2021/11/25 08:05:45;;;;;;;14.50;6.20;;;;;;;3.89;100.00;100736.66;6276174;28;20415;-80
2021/11/25 08:08:47;;;;;;;15.65;6.88;;;;;;;3.82;100.00;100741.19;6278135;28;20053;-81
2021/11/25 08:11:49;;;;;;;12.65;5.57;;;;;;;3.80;100.00;100729.97;6255034;28;20053;-81
2021/11/25 08:14:51;;;;;;;11.00;5.32;;;;;;;3.92;100.00;100731.41;6253335;28;20049;-81
2021/11/25 08:17:52;;;;;;;13.25;6.00;;;;;;;4.02;100.00;100733.72;6253307;28;20072;-82
2021/11/25 08:20:54;;;;;;;12.30;5.72;;;;;;;4.10;100.00;100723.09;6253884;28;20049;-81
2021/11/25 08:23:55;;;;;;;14.85;5.70;;;;;;;4.18;100.00;100721.16;6253710;28;20057;-81
2021/11/25 08:26:58;;;;;;;12.80;6.32;;;;;;;4.24;100.00;100720.97;6259367;28;20045;-81
2021/11/25 08:29:59;;;;;;;12.95;5.60;;;;;;;4.31;100.00;100714.72;6276418;28;20049;-81
2021/11/25 08:33:01;;;;;;;13.10;6.35;;;;;;;4.29;100.00;100713.06;6278050;28;20056;-80
2021/11/25 08:36:03;;;;;;;17.13;6.05;;;;;;;4.36;100.00;100727.59;6276593;28;20052;-81
2021/11/25 08:39:05;;;;;;;16.75;6.40;;;;;;;4.36;100.00;100721.53;6275243;28;20052;-81
2021/11/25 08:42:09;;;;;;;15.65;7.07;;;;;;;4.39;100.00;100713.63;6275466;28;20060;-81
2021/11/25 08:45:11;;;;;;;18.70;7.80;;;;;;;4.43;100.00;100702.25;6275343;28;20041;-82
2021/11/25 08:48:12;;;;;;;13.77;5.97;;;;;;;4.41;100.00;100709.25;6268859;28;20408;-83
2021/11/25 08:51:14;;;;;;;16.10;7.07;;;;;;;4.46;100.00;100717.78;6256847;28;20492;-80
2021/11/25 08:54:17;;;;;;;11.30;5.63;;;;;;;4.51;100.00;100713.28;6275121;28;20045;-76
2021/11/25 08:57:19;;;;;;;15.50;5.85;;;;;;;4.49;100.00;100715.06;6253940;28;20049;-81
2021/11/25 09:00:23;;;;;;;10.82;6.45;;;;;;;4.55;100.00;100717.53;6250253;28;20061;-81
2021/11/25 09:03:24;;;;;;;17.65;7.18;;;;;;;4.55;100.00;100707.13;6274741;28;20049;-82
2021/11/25 09:06:25;;;;;;;15.55;6.72;;;;;;;4.56;100.00;100703.59;6272873;28;20045;-81
2021/11/25 09:09:27;;;;;;;13.90;5.80;;;;;;;4.59;100.00;100706.13;6274907;28;20049;-79
2021/11/25 09:12:29;;;;;;;15.80;7.35;;;;;;;4.62;100.00;100703.41;6273799;28;20051;-80
2021/11/25 09:15:33;;;;;;;17.95;7.32;;;;;;;4.59;100.00;100711.34;6274768;28;20048;-81
2021/11/25 09:18:34;;;;;;;14.27;6.68;;;;;;;4.52;100.00;100708.03;6274383;28;20427;-80
2021/11/25 09:21:36;;;;;;;13.70;6.03;;;;;;;4.59;100.00;100708.72;6274939;28;20049;-81
2021/11/25 09:24:37;;;;;;;17.38;8.32;;;;;;;4.63;100.00;100701.66;6273515;28;20049;-82
2021/11/25 09:27:40;;;;;;;14.43;7.20;;;;;;;4.68;100.00;100702.38;6274631;28;20049;-81
2021/11/25 09:30:41;;;;;;;14.35;7.20;;;;;;;4.69;100.00;100698.91;6268779;28;20436;-80
2021/11/25 09:33:43;;;;;;;16.27;7.05;;;;;;;4.72;100.00;100697.03;6273065;28;20041;-81
2021/11/25 09:36:45;;;;;;;10.55;6.47;;;;;;;4.71;100.00;100699.69;6273273;28;20407;-82
2021/11/25 09:39:46;;;;;;;21.17;7.80;;;;;;;4.76;100.00;100703.84;6274385;28;20442;-81
2021/11/25 09:42:49;;;;;;;13.70;7.07;;;;;;;4.75;100.00;100698.69;6273471;28;20053;-81
2021/11/25 09:45:51;;;;;;;9.88;5.80;;;;;;;4.80;100.00;100694.19;6277782;28;20044;-81
2021/11/25 09:48:54;;;;;;;14.10;7.60;;;;;;;4.82;100.00;100701.09;6289585;28;20035;-82
2021/11/25 09:51:57;;;;;;;11.73;5.50;;;;;;;4.77;100.00;100710.78;6284097;28;20068;-84
2021/11/25 09:54:59;;;;;;;21.60;8.35;;;;;;;4.77;100.00;100709.94;6273199;28;20053;-81
2021/11/25 09:58:01;;;;;;;13.88;6.65;;;;;;;4.82;100.00;100713.25;6250822;28;20053;-82
2021/11/25 10:01:06;;;;;;;15.82;6.68;;;;;;;4.83;100.00;100708.00;6256799;28;20052;-80
2021/11/25 10:04:07;;;;;;;17.40;7.82;;;;;;;4.86;100.00;100704.44;6271532;28;20041;-81
2021/11/25 10:07:09;;;;;;;12.75;6.43;;;;;;;4.83;100.00;100713.19;6250903;28;20519;-83
2021/11/25 10:10:24;;;;;;;12.38;6.20;;;;;;;4.87;100.00;100713.09;6249882;28;20602;-82
2021/11/25 10:13:35;;;;;;;17.27;7.70;;;;;;;4.97;100.00;100709.31;6251390;28;20064;-83
2021/11/25 10:16:40;;;;;;;15.32;7.68;;;;;;;4.97;99.56;100701.50;6250295;28;20049;-83
2021/11/25 10:19:41;;;;;;;15.55;6.72;;;;;;;5.00;100.00;100686.66;6250435;28;20056;-82
2021/11/25 10:23:13;;;;;;;17.70;6.95;;;;;;;5.07;100.00;100692.50;6250735;28;20728;-81
2021/11/25 10:26:17;;;;;;;17.20;6.95;;;;;;;5.14;100.00;100688.81;6251072;28;20045;-82
2021/11/25 10:29:22;;;;;;;16.52;6.75;;;;;;;5.19;100.00;100681.69;6250265;28;20533;-82
2021/11/25 10:32:23;;;;;;;14.05;6.93;;;;;;;5.16;99.45;100679.19;6250709;28;20518;-82
2021/11/25 10:35:27;;;;;;;13.18;6.75;;;;;;;5.16;99.13;100675.72;6270413;28;20048;-80
2021/11/25 10:38:36;;;;;;;14.40;6.80;;;;;;;5.18;99.18;100668.69;6273781;28;20167;-81
2021/11/25 10:41:40;;;;;;;16.63;5.90;;;;;;;5.17;99.06;100669.59;6248669;28;20053;-82
2021/11/25 10:44:46;;;;;;;18.40;6.78;;;;;;;5.21;96.71;100666.00;6249354;28;20053;-80
2021/11/25 10:47:58;;;;;;;14.80;7.15;;;;;;;5.16;98.02;100657.50;6248983;28;20048;-81
2021/11/25 10:51:00;;;;;;;16.13;7.00;;;;;;;5.18;97.36;100653.94;6249984;28;20053;-82
2021/11/25 10:54:02;;;;;;;13.45;6.65;;;;;;;5.25;96.99;100659.81;6248871;28;20049;-80
2021/11/25 10:57:06;;;;;;;17.23;7.03;;;;;;;5.22;96.40;100650.34;6269826;28;20428;-81
2021/11/25 11:00:13;;;;;;;14.93;7.32;;;;;;;5.23;97.06;100644.22;6274427;28;20064;-81
2021/11/25 11:03:22;;;;;;;15.13;6.93;;;;;;;5.18;96.40;100643.53;6274415;28;20067;-82
2021/11/25 11:06:30;;;;;;;18.80;7.32;;;;;;;5.24;96.06;100645.06;6273908;28;20134;-82
2021/11/25 11:09:35;;;;;;;14.52;6.15;;;;;;;5.30;96.62;100648.31;6275061;28;20468;-84
2021/11/25 11:12:43;;;;;;;12.90;6.97;;;;;;;5.41;94.96;100647.97;6274624;28;20059;-81
2021/11/25 11:15:57;;;;;;;19.42;7.68;;;;;;;5.49;95.85;100645.09;6275576;28;20045;-81
2021/11/25 11:19:00;;;;;;;16.08;7.20;;;;;;;5.48;95.61;100643.41;6275623;28;20059;-82
2021/11/25 11:22:12;;;;;;;19.35;7.97;;;;;;;5.39;94.87;100641.09;6277083;28;20052;-80
2021/11/25 11:25:13;;;;;;;12.43;5.20;;;;;;;5.41;96.41;100634.09;6280231;28;20053;-83
2021/11/25 11:28:15;;;;;;;15.50;7.00;;;;;;;5.44;95.75;100626.16;6276363;28;20060;-82
2021/11/25 11:31:18;;;;;;;14.13;7.95;;;;;;;5.52;95.04;100619.78;6275817;28;20056;-85
2021/11/25 11:34:20;;;;;;;14.88;6.55;;;;;;;5.51;94.29;100610.28;6266707;28;20057;-83
2021/11/25 11:37:22;;;;;;;12.77;6.57;;;;;;;5.54;94.12;100615.38;6262676;28;20389;-82
2021/11/25 11:40:26;;;;;;;12.32;6.57;;;;;;;5.63;93.46;100616.78;6292214;28;20047;-82
2021/11/25 11:43:27;;;;;;;11.55;6.93;;;;;;;5.51;94.34;100610.28;6297531;28;20056;-81
2021/11/25 11:46:33;;;;;;;15.52;7.65;;;;;;;5.51;94.26;100612.88;6297105;28;20052;-83
2021/11/25 11:49:35;;;;;;;16.05;6.95;;;;;;;5.51;95.31;100609.41;6298703;28;20053;-82
2021/11/25 11:52:54;;;;;;;15.73;7.65;;;;;;;5.35;96.70;100599.50;6287929;28;20045;-82
2021/11/25 11:55:59;;;;;;;20.95;8.95;;;;;;;5.39;96.84;100608.06;6271347;28;20037;-83
2021/11/25 11:59:00;;;;;;;20.65;6.85;;;;;;;5.35;97.57;100606.47;6270198;28;20499;-81
2021/11/25 12:02:04;;;;;;;13.52;6.63;;;;;;;5.32;98.52;100598.78;6270850;28;20049;-81
2021/11/25 12:05:06;;;;;;;18.95;8.57;;;;;;;5.27;99.69;100593.72;6270997;28;20056;-82
2021/11/25 12:08:41;;;;;;;14.95;7.07;;;;;;;5.38;98.89;100590.75;6275753;28;20052;-83
2021/11/25 12:11:44;;;;;;;18.45;7.47;;;;;;;5.39;100.00;100589.00;6273937;28;20433;-81
2021/11/25 12:14:52;;;;;;;19.42;8.52;;;;;;;5.31;100.00;100582.31;6272129;28;20049;-81
2021/11/25 12:17:54;;;;;;;17.85;7.53;;;;;;;5.18;100.00;100587.94;6275670;28;20053;-81
2021/11/25 12:20:58;;;;;;;18.38;8.30;;;;;;;5.14;100.00;100578.56;6275380;28;20052;-80
2021/11/25 12:24:10;;;;;;;18.23;7.35;;;;;;;4.95;100.00;100579.19;6275268;28;20045;-81
2021/11/25 12:27:16;;;;;;;16.33;8.02;;;;;;;4.74;100.00;100574.66;6272784;28;20503;-80
2021/11/25 12:30:17;;;;;;;18.25;8.43;;;;;;;4.62;100.00;100588.06;6275241;28;20048;-84
2021/11/25 12:33:39;;;;;;;24.98;8.23;;;;;;;4.46;100.00;100590.28;6275818;28;20052;-81
2021/11/25 12:36:41;;;;;;;22.08;9.23;;;;;;;4.46;100.00;100580.72;6263762;28;20056;-83
2021/11/25 12:39:42;;;;;;;18.70;9.65;;;;;;;4.48;100.00;100580.69;6273971;28;20135;-78
2021/11/25 12:42:44;;;;;;;23.35;10.05;;;;;;;4.54;100.00;100576.16;6274813;28;20048;-81
2021/11/25 12:45:47;;;;;;;25.73;8.68;;;;;;;4.49;100.00;100565.00;6276082;28;20496;-78
2021/11/25 12:48:52;;;;;;;19.63;9.52;;;;;;;4.49;100.00;100566.75;6277387;28;20056;-80
2021/11/25 12:51:54;;;;;;;19.80;9.23;;;;;;;4.55;100.00;100569.19;6279860;28;20064;-79
2021/11/25 12:55:06;;;;;;;21.27;9.63;;;;;;;4.53;100.00;100558.81;6277277;28;20128;-80
2021/11/25 12:58:08;;;;;;;20.95;9.38;;;;;;;4.62;100.00;100564.63;6277495;28;20041;-79
2021/11/25 13:01:13;;;;;;;19.77;8.75;;;;;;;4.55;100.00;100570.03;6273338;28;20507;-79
2021/11/25 13:04:20;;;;;;;24.95;9.15;;;;;;;4.40;100.00;100573.09;6274403;28;20622;-79
2021/11/25 13:07:21;;;;;;;22.15;9.93;;;;;;;4.30;100.00;100564.72;6261652;28;20044;-79
2021/11/25 13:10:25;;;;;;;18.55;8.07;;;;;;;4.26;100.00;100560.50;6276481;28;20045;-79
2021/11/25 13:13:29;;;;;;;20.90;10.43;;;;;;;4.22;100.00;100558.91;6275413;28;20041;-79
2021/11/25 13:16:31;;;;;;;22.85;10.48;;;;;;;4.21;100.00;100556.34;6282708;28;20060;-79
2021/11/25 13:19:36;;;;;;;20.75;9.80;;;;;;;4.17;100.00;100559.94;6274425;28;20049;-77
2021/11/25 13:22:37;;;;;;;23.67;9.88;;;;;;;4.15;100.00;100562.59;6275867;28;20515;-78
2021/11/25 13:25:49;;;;;;;22.35;10.23;;;;;;;4.14;100.00;100562.66;6275442;28;20064;-79
2021/11/25 13:28:52;;;;;;;21.98;10.52;;;;;;;4.12;100.00;100552.28;6275019;28;20045;-79
2021/11/25 13:31:54;;;;;;;21.50;9.18;;;;;;;4.13;100.00;100542.72;6274943;28;20045;-79
2021/11/25 13:34:59;;;;;;;22.20;8.77;;;;;;;4.17;100.00;100546.94;6273983;28;20053;-79
2021/11/25 13:38:00;;;;;;;27.48;10.55;;;;;;;4.19;100.00;100539.97;6274448;28;20508;-79
2021/11/25 13:41:02;;;;;;;20.75;9.57;;;;;;;4.22;100.00;100542.44;6273494;28;20045;-80
2021/11/25 13:44:04;;;;;;;21.88;10.23;;;;;;;4.19;100.00;100539.97;6274585;28;20053;-79
2021/11/25 13:47:09;;;;;;;21.45;10.05;;;;;;;4.16;100.00;100529.63;6272368;28;20041;-80
2021/11/25 13:50:15;;;;;;;23.85;11.88;;;;;;;4.15;100.00;100538.34;6272031;28;20052;-80
2021/11/25 13:53:18;;;;;;;23.00;10.70;;;;;;;4.23;100.00;100537.22;6272772;28;20048;-79
2021/11/25 13:56:19;;;;;;;26.88;11.80;;;;;;;4.28;100.00;100529.28;6271150;28;20049;-80
2021/11/25 13:59:23;;;;;;;28.27;9.98;;;;;;;4.25;100.00;100529.34;6272094;28;20051;-79
2021/11/25 14:02:27;;;;;;;22.70;10.75;;;;;;;4.23;100.00;100523.38;6269377;28;20041;-79
2021/11/25 14:05:41;;;;;;;20.60;8.60;;;;;;;4.27;100.00;100540.56;6272993;28;20049;-80
2021/11/25 14:08:43;;;;;;;27.08;9.40;;;;;;;4.24;100.00;100544.13;6274442;28;20071;-81
2021/11/25 14:11:54;;;;;;;31.17;11.18;;;;;;;4.28;100.00;100534.47;6274803;28;20049;-79